Decoded Metar for KFBG (FORT BRAGG/SIMMO in NC, USA) (IATA:FBG) | Meteo·Mobile Aviation Weather
aviador You're here:

KFBG Decoded Metar

FORT BRAGG/SIMMO in NC, USA
Report Time2018-11-16 06:56:00
UTC Time2018-11-16 07:11:48
Flight Rules mvfr MVFR
Wind270° at 10 kt
W.Decomp.*RWY 27: 9.9 kt HW 1.2 kt RCW
W.Rank270° ranks 27
Current wind is above 270° avg. (6.9)
Visibility9999 m
Phenomena:N/A
Clouds:Overcast 011 Hf
Expected CloudBase > 400 ft AGL from Temp-Dew spread
Ceiling1,100 ft
Temp06°C (ISA -9)
Dew Point05°C (93% RH)
AAT1.3°C
QNH1014 hPa
Density Alt-699 ft
Elevation243 ft
Report Wrong Elevation
Raw Report
KFBG 160656Z AUTO 27010KT 10SM OVC011 06/05 A2993 RMK AO2 SLP139
T00600048=

Extra information for KFBG:More info

Metar Taf Metar & Taf Last 4 Metars F.Rules Stats Wind Profile Meteogram Temp Stats Airport Information Weather charts Add Link Nearby VenuesMetar ALERT Operation Metar Decoded Social comments

AIRNAV info for KFBG